Veedum, Wisconsin
Current Conditions -  °F | °C
As of 3:54 AM on Thursday 23 Oct 2014 (Local Time) from KMFI Reporting Station
Light Rain Light Rain  
Wind Chill: 38°   Ceiling: 3600
Heat Index: 43°   Visibility: 8mi
Dew Point: 38°   Wind: 8mph
Humidity: 82%   Direction: 160°SSE
Pressure: 30.11"   Gusts: NA
Location:  44.4101°N, 90.2968°W
Report Text: KMFI 230854Z AUTO 16007KT 8SM -RA BKN036 OVC055 06/03 A3011 RMK AO2 RAB14 SLP203 P0000 60000 T00610033 58010
Loading
Personal Weather Stations






























Interactive Weather Map
Tropical Storm Tracking
New forecast layout! Learn more

10-Day Weather Forecast

Advertisements
Track Severe Weather on mobile